Time;durP1;ratioP1;P1;durP2;ratioP2;P2;SDS_P1;SDS_P2;PMS_P1;PMS_P2;Temp;Humidity;BMP_temperature;BMP_pressure;BME280_temperature;BME280_humidity;BME280_pressure;Samples;Min_cycle;Max_cycle;Signal;HPM_P1;HPM_P2
2022/05/08 00:00:34;;;;;;;15.32;3.05;;;9.50;99.90;;;;;;4986761;28;20042;-76
2022/05/08 00:03:00;;;;;;;18.20;3.25;;;9.50;99.90;;;;;;5002121;28;20044;-77
2022/05/08 00:05:26;;;;;;;15.82;3.35;;;11.50;99.90;;;;;;4987419;28;20045;-77
2022/05/08 00:07:52;;;;;;;18.73;3.63;;;11.10;99.90;;;;;;5002745;28;20496;-77
2022/05/08 00:10:18;;;;;;;15.23;3.30;;;9.50;99.90;;;;;;5009591;28;20119;-76
2022/05/08 00:12:44;;;;;;;23.23;4.25;;;9.50;99.90;;;;;;5046337;28;20388;-75
2022/05/08 00:15:10;;;;;;;18.52;3.67;;;8.10;99.90;;;;;;5010952;28;20129;-76
2022/05/08 00:17:35;;;;;;;17.42;3.30;;;9.30;99.90;;;;;;5024504;28;20041;-76
2022/05/08 00:20:03;;;;;;;22.10;5.05;;;9.80;99.90;;;;;;5032274;28;20056;-75
2022/05/08 00:22:29;;;;;;;15.40;4.07;;;9.30;99.90;;;;;;5032256;28;20041;-74
2022/05/08 00:24:55;;;;;;;18.27;4.90;;;9.30;99.90;;;;;;5046783;28;20099;-77
2022/05/08 00:27:21;;;;;;;19.02;4.20;;;9.30;99.90;;;;;;5037976;28;20038;-76
2022/05/08 00:29:46;;;;;;;20.73;4.18;;;10.40;99.90;;;;;;5012657;28;20052;-75
2022/05/08 00:32:13;;;;;;;20.30;4.45;;;9.20;99.90;;;;;;5007113;28;20322;-74
2022/05/08 00:34:39;;;;;;;16.95;4.00;;;9.40;99.90;;;;;;5013432;28;20045;-74
2022/05/08 00:37:05;;;;;;;13.10;3.90;;;9.90;99.90;;;;;;5042975;28;20036;-75
2022/05/08 00:39:32;;;;;;;17.25;3.90;;;9.10;99.90;;;;;;5038449;28;20396;-74
2022/05/08 00:42:01;;;;;;;16.83;4.75;;;9.00;99.90;;;;;;5024282;28;20063;-75
2022/05/08 00:44:27;;;;;;;21.17;4.60;;;9.00;99.90;;;;;;5040072;28;20045;-76
2022/05/08 00:46:52;;;;;;;19.27;4.63;;;10.10;99.90;;;;;;5022232;28;20399;-75
2022/05/08 00:49:18;;;;;;;23.10;4.80;;;8.80;99.90;;;;;;5046303;28;20041;-75
2022/05/08 00:51:47;;;;;;;16.42;3.75;;;8.40;99.90;;;;;;5029691;28;20061;-74
2022/05/08 00:54:16;;;;;;;18.70;4.03;;;8.70;99.90;;;;;;5009002;28;20088;-74
2022/05/08 00:56:42;;;;;;;20.25;4.38;;;8.80;99.90;;;;;;5018287;28;20505;-75
2022/05/08 00:59:09;;;;;;;13.45;3.45;;;10.50;99.90;;;;;;5027158;28;20045;-74
2022/05/08 01:01:35;;;;;;;15.98;3.80;;;9.60;99.90;;;;;;5028686;28;20041;-75
2022/05/08 01:04:01;;;;;;;25.60;4.10;;;8.60;99.90;;;;;;5018686;28;20166;-75
2022/05/08 01:06:29;;;;;;;13.50;4.15;;;9.40;99.90;;;;;;5026957;28;20053;-75
2022/05/08 01:08:55;;;;;;;23.92;5.13;;;8.50;99.90;;;;;;5020022;28;20037;-76
2022/05/08 01:11:21;;;;;;;14.20;3.60;;;9.60;99.90;;;;;;5007735;28;20102;-75
2022/05/08 01:13:47;;;;;;;15.40;3.47;;;9.40;99.90;;;;;;5021949;28;20042;-75
2022/05/08 01:16:15;;;;;;;19.98;4.70;;;8.40;99.90;;;;;;5038373;28;20041;-74
2022/05/08 01:18:42;;;;;;;15.85;3.35;;;8.40;99.90;;;;;;5028893;28;20049;-75
2022/05/08 01:21:09;;;;;;;17.85;3.95;;;8.40;99.90;;;;;;5005678;28;20037;-74
2022/05/08 01:23:36;;;;;;;16.38;4.18;;;8.80;99.90;;;;;;5021553;28;20087;-75
2022/05/08 01:26:02;;;;;;;18.30;3.70;;;8.30;99.90;;;;;;5004762;28;20048;-75
2022/05/08 01:28:29;;;;;;;13.98;3.60;;;8.40;99.90;;;;;;5028290;28;20049;-74
2022/05/08 01:30:55;;;;;;;10.52;3.45;;;8.10;99.90;;;;;;5038579;28;20041;-75
2022/05/08 01:33:22;;;;;;;20.25;4.57;;;8.30;99.90;;;;;;5043769;28;20096;-75
2022/05/08 01:35:49;;;;;;;15.00;4.03;;;8.20;99.90;;;;;;5027785;28;20037;-75
2022/05/08 01:38:17;;;;;;;18.15;3.83;;;9.30;99.90;;;;;;5027112;28;20037;-75
2022/05/08 01:40:43;;;;;;;13.43;3.40;;;8.30;99.90;;;;;;5022108;28;20135;-75
2022/05/08 01:43:10;;;;;;;12.20;3.83;;;8.20;99.90;;;;;;5023755;28;20140;-75
2022/05/08 01:45:36;;;;;;;15.85;3.85;;;8.30;99.90;;;;;;5040629;28;20103;-75
2022/05/08 01:50:47;;;;;;;;;;;8.20;99.90;;;;;;5041524;28;20053;-75
2022/05/08 01:53:13;;;;;;;19.92;4.55;;;8.10;99.90;;;;;;5037004;28;20009;-74
2022/05/08 01:55:39;;;;;;;15.68;4.03;;;8.00;99.90;;;;;;5043603;28;20128;-76
2022/05/08 01:58:05;;;;;;;20.13;4.13;;;8.10;99.90;;;;;;5008280;28;20032;-75
2022/05/08 02:00:31;;;;;;;12.73;4.25;;;8.00;99.90;;;;;;5023774;28;20064;-75
2022/05/08 02:03:02;;;;;;;18.92;3.70;;;7.90;99.90;;;;;;5024495;28;20048;-76
2022/05/08 02:05:29;;;;;;;13.77;3.47;;;7.80;99.90;;;;;;5041491;28;21232;-75
2022/05/08 02:07:56;;;;;;;16.52;3.60;;;8.40;99.90;;;;;;5024397;28;20498;-75
2022/05/08 02:10:23;;;;;;;16.42;4.13;;;7.70;99.90;;;;;;5007539;28;20045;-76
2022/05/08 02:12:49;;;;;;;10.15;3.30;;;7.60;99.90;;;;;;5012596;28;20046;-75
2022/05/08 02:15:15;;;;;;;15.23;3.42;;;7.40;99.90;;;;;;5043553;28;20044;-75
2022/05/08 02:17:41;;;;;;;15.63;3.33;;;9.30;99.90;;;;;;5008483;28;20041;-75
2022/05/08 02:20:08;;;;;;;11.18;3.65;;;6.90;99.90;;;;;;5035871;28;20048;-74
2022/05/08 02:22:35;;;;;;;11.60;3.45;;;7.50;99.90;;;;;;5019988;28;20045;-75
2022/05/08 02:25:01;;;;;;;13.38;3.13;;;7.40;99.90;;;;;;5027313;28;20063;-75
2022/05/08 02:27:38;;;;;;;12.93;3.03;;;7.40;99.90;;;;;;5029250;28;20053;-74
2022/05/08 02:30:09;;;;;;;14.52;3.78;;;7.40;99.90;;;;;;5043017;28;20052;-74
2022/05/08 02:32:37;;;;;;;12.10;3.33;;;7.40;99.90;;;;;;5027329;28;20045;-75
2022/05/08 02:35:06;;;;;;;18.83;3.83;;;7.30;99.90;;;;;;5037408;28;20048;-74
2022/05/08 02:37:33;;;;;;;14.40;3.75;;;7.40;99.90;;;;;;5019444;28;20049;-76
2022/05/08 02:39:59;;;;;;;12.40;3.38;;;7.30;99.90;;;;;;5021563;28;20043;-75
2022/05/08 02:42:26;;;;;;;15.07;4.40;;;7.30;99.90;;;;;;5009724;28;20129;-76
2022/05/08 02:44:51;;;;;;;13.80;3.22;;;7.30;99.90;;;;;;5021382;28;20045;-76
2022/05/08 02:47:17;;;;;;;9.38;2.97;;;7.10;99.90;;;;;;5036439;28;20064;-75
2022/05/08 02:49:43;;;;;;;10.65;3.20;;;7.30;99.90;;;;;;5049070;28;20133;-75
2022/05/08 02:52:08;;;;;;;8.43;3.22;;;7.20;99.90;;;;;;5026373;28;20088;-75
2022/05/08 02:54:34;;;;;;;13.20;3.15;;;7.80;99.90;;;;;;5027980;28;20049;-75
2022/05/08 02:59:44;;;;;;;14.65;4.72;;;8.40;99.90;;;;;;5044898;28;20130;-76
2022/05/08 03:02:09;;;;;;;21.77;3.90;;;6.80;99.90;;;;;;5023342;28;20149;-75
2022/05/08 03:04:35;;;;;;;11.43;3.05;;;6.90;99.90;;;;;;5013367;28;20388;-76
2022/05/08 03:07:03;;;;;;;18.65;3.28;;;6.90;99.90;;;;;;5010932;28;20033;-75
2022/05/08 03:09:29;;;;;;;14.90;4.07;;;7.00;99.90;;;;;;5028369;28;20084;-75
2022/05/08 03:11:55;;;;;;;13.48;4.45;;;7.50;99.90;;;;;;5025173;28;20056;-76
2022/05/08 03:14:20;;;;;;;13.80;4.53;;;6.90;99.90;;;;;;5029108;28;20130;-75
2022/05/08 03:16:47;;;;;;;10.98;4.50;;;6.60;99.90;;;;;;5040207;28;20080;-76
2022/05/08 03:19:13;;;;;;;18.27;5.05;;;6.90;99.90;;;;;;5022675;28;20052;-76
2022/05/08 03:21:40;;;;;;;15.55;4.40;;;8.80;99.90;;;;;;5003165;28;20357;-75
2022/05/08 03:24:07;;;;;;;19.23;5.45;;;6.80;99.90;;;;;;5018669;28;20550;-75
2022/05/08 03:26:33;;;;;;;14.45;3.95;;;6.80;99.90;;;;;;5018904;28;20543;-76
2022/05/08 03:28:59;;;;;;;9.00;3.72;;;7.60;99.90;;;;;;5007924;28;20025;-75
2022/05/08 03:31:25;;;;;;;10.90;4.13;;;6.50;99.90;;;;;;5006500;28;20059;-75
2022/05/08 03:33:51;;;;;;;17.38;5.55;;;6.80;99.90;;;;;;5011849;28;20106;-75
2022/05/08 03:36:16;;;;;;;16.10;4.57;;;7.90;99.90;;;;;;5042452;28;20040;-76
2022/05/08 03:38:44;;;;;;;17.70;4.78;;;6.70;99.90;;;;;;5044641;28;20132;-75
2022/05/08 03:41:15;;;;;;;15.13;4.38;;;6.50;99.90;;;;;;5023133;28;20415;-75
2022/05/08 03:43:43;;;;;;;20.83;4.65;;;7.90;99.90;;;;;;5037775;28;20497;-75
2022/05/08 03:46:09;;;;;;;16.55;4.80;;;6.50;99.90;;;;;;5039005;28;20123;-75
2022/05/08 03:48:35;;;;;;;16.73;4.53;;;8.40;99.90;;;;;;5026037;28;20053;-75
2022/05/08 03:51:01;;;;;;;12.35;3.95;;;6.50;99.90;;;;;;5043557;28;20041;-76
2022/05/08 03:53:27;;;;;;;15.75;4.80;;;6.50;99.90;;;;;;5026426;28;20071;-76
2022/05/08 03:55:52;;;;;;;11.05;4.07;;;6.50;99.90;;;;;;5036435;28;20095;-75
2022/05/08 03:58:18;;;;;;;10.13;3.95;;;6.50;99.90;;;;;;5038731;28;20078;-75
2022/05/08 04:00:44;;;;;;;11.40;3.47;;;6.40;99.90;;;;;;5027514;28;20513;-74
2022/05/08 04:03:09;;;;;;;11.98;3.75;;;6.50;99.90;;;;;;5026895;28;20091;-78
2022/05/08 04:05:35;;;;;;;15.10;4.57;;;6.50;99.90;;;;;;5024762;28;20132;-76
2022/05/08 04:08:01;;;;;;;16.55;4.63;;;6.80;99.90;;;;;;5019987;28;20057;-76
2022/05/08 04:10:26;;;;;;;14.63;4.28;;;6.40;99.90;;;;;;5028886;28;20078;-76
2022/05/08 04:12:52;;;;;;;13.75;4.50;;;8.20;99.90;;;;;;5052308;28;20053;-75
2022/05/08 04:18:01;;;;;;;14.43;4.22;;;6.50;99.90;;;;;;5016090;28;20672;-76
2022/05/08 04:20:27;;;;;;;15.95;4.90;;;6.40;99.90;;;;;;5027542;28;20048;-75
2022/05/08 04:25:37;;;;;;;14.20;3.92;;;6.80;99.90;;;;;;5041794;28;20050;-75
2022/05/08 04:28:03;;;;;;;13.27;3.58;;;6.30;99.90;;;;;;5003423;28;20801;-75
2022/05/08 04:30:28;;;;;;;14.50;4.22;;;6.30;99.90;;;;;;5039140;28;20045;-74
2022/05/08 04:32:54;;;;;;;13.25;4.72;;;6.80;99.90;;;;;;5023145;28;20043;-75
2022/05/08 04:35:20;;;;;;;11.45;4.32;;;6.40;99.90;;;;;;5021137;28;20061;-76
2022/05/08 04:37:45;;;;;;;12.48;3.78;;;6.30;99.90;;;;;;5044509;28;20095;-76
2022/05/08 04:40:11;;;;;;;11.02;3.50;;;6.30;99.90;;;;;;5026988;28;20510;-76
2022/05/08 04:42:37;;;;;;;11.15;3.80;;;6.30;99.90;;;;;;5044436;28;20464;-76
2022/05/08 04:45:03;;;;;;;11.18;4.30;;;6.40;99.90;;;;;;5037888;28;20124;-76
2022/05/08 04:47:29;;;;;;;14.90;3.90;;;6.30;99.90;;;;;;5022423;28;20575;-74
2022/05/08 04:49:54;;;;;;;8.63;3.55;;;6.20;99.90;;;;;;5043782;28;20048;-76
2022/05/08 04:52:20;;;;;;;16.17;4.95;;;7.40;99.90;;;;;;5025990;28;20033;-76
2022/05/08 04:54:46;;;;;;;12.57;3.05;;;6.30;99.90;;;;;;5045299;28;20049;-76
2022/05/08 04:57:11;;;;;;;8.23;3.22;;;6.30;99.90;;;;;;5046127;28;20060;-75
2022/05/08 04:59:37;;;;;;;8.75;3.33;;;6.40;99.90;;;;;;5048010;28;20090;-75
2022/05/08 05:02:03;;;;;;;10.65;3.47;;;6.40;99.90;;;;;;5041348;28;20064;-76
2022/05/08 05:04:29;;;;;;;13.30;4.22;;;6.40;99.90;;;;;;5027551;28;20405;-76
2022/05/08 05:06:54;;;;;;;10.70;3.78;;;6.40;99.90;;;;;;5045270;28;20075;-75
2022/05/08 05:09:20;;;;;;;8.05;3.08;;;6.40;99.90;;;;;;5047207;28;20033;-76
2022/05/08 05:11:46;;;;;;;12.77;3.75;;;8.30;99.90;;;;;;5028789;28;20056;-75
2022/05/08 05:14:12;;;;;;;15.82;3.60;;;8.00;99.90;;;;;;5029413;28;20036;-75
2022/05/08 05:16:38;;;;;;;13.23;3.78;;;6.40;99.90;;;;;;5026990;28;20129;-75
2022/05/08 05:19:06;;;;;;;10.48;3.47;;;6.40;99.90;;;;;;5023807;28;20055;-74
2022/05/08 05:21:32;;;;;;;11.75;3.55;;;6.50;99.90;;;;;;5022336;28;20269;-75
2022/05/08 05:23:57;;;;;;;17.50;3.67;;;6.60;99.90;;;;;;5043089;28;20161;-76
2022/05/08 05:26:23;;;;;;;8.57;2.85;;;6.70;99.90;;;;;;5008271;28;20041;-75
2022/05/08 05:28:49;;;;;;;11.38;3.22;;;6.70;99.90;;;;;;5025885;28;20051;-75
2022/05/08 05:31:16;;;;;;;7.55;2.75;;;6.70;99.90;;;;;;5041188;28;20512;-75
2022/05/08 05:33:42;;;;;;;14.43;3.88;;;5.30;99.90;;;;;;5043121;28;20033;-74
2022/05/08 05:36:08;;;;;;;11.82;3.25;;;6.70;99.90;;;;;;5042520;28;20108;-75
2022/05/08 05:38:33;;;;;;;11.02;2.97;;;8.50;99.90;;;;;;5008420;28;20432;-74
2022/05/08 05:40:59;;;;;;;6.22;2.42;;;7.00;99.90;;;;;;5023827;28;20049;-74
2022/05/08 05:43:25;;;;;;;10.40;2.40;;;8.90;99.90;;;;;;5048178;28;20086;-75
2022/05/08 05:47:49;;;;;;;9.52;2.67;;;7.20;99.90;;;;;;5023249;28;20060;-75
2022/05/08 05:48:36;;;;;;;8.77;2.17;;;7.30;99.90;;;;;;5030973;28;20049;-74
2022/05/08 05:51:03;;;;;;;11.23;2.47;;;7.40;99.90;;;;;;5009674;28;20114;-73
2022/05/08 05:53:28;;;;;;;9.38;2.30;;;6.40;99.90;;;;;;5046742;28;20037;-74
2022/05/08 05:55:57;;;;;;;5.90;1.73;;;7.50;99.90;;;;;;5005182;28;20528;-76
2022/05/08 05:58:23;;;;;;;12.23;2.35;;;8.60;99.90;;;;;;5009697;28;20095;-75
2022/05/08 06:00:48;;;;;;;7.10;1.80;;;7.80;99.90;;;;;;5044068;28;20564;-75
2022/05/08 06:03:14;;;;;;;9.38;2.88;;;7.90;99.90;;;;;;5034888;28;20488;-76
2022/05/08 06:05:40;;;;;;;10.68;2.50;;;7.90;99.90;;;;;;5031176;28;20045;-75
2022/05/08 06:08:07;;;;;;;10.65;2.45;;;8.00;99.90;;;;;;5027406;28;20083;-75
2022/05/08 06:10:32;;;;;;;10.40;1.77;;;8.10;99.90;;;;;;5035760;28;20497;-74
2022/05/08 06:12:58;;;;;;;13.48;2.20;;;8.20;99.90;;;;;;5004000;28;20533;-75
2022/05/08 06:15:24;;;;;;;7.60;1.85;;;8.30;99.90;;;;;;5043168;28;20045;-74
2022/05/08 06:17:49;;;;;;;8.27;2.30;;;8.30;99.90;;;;;;5008125;28;20059;-75
2022/05/08 06:20:15;;;;;;;10.73;1.95;;;8.30;99.90;;;;;;5021312;28;20278;-75
2022/05/08 06:22:41;;;;;;;15.05;2.45;;;8.10;99.90;;;;;;5027161;28;20388;-75
2022/05/08 06:25:07;;;;;;;12.45;3.55;;;9.90;99.90;;;;;;5037927;28;20049;-75
2022/05/08 06:27:32;;;;;;;17.50;7.10;;;8.60;99.90;;;;;;5003424;28;20507;-75
2022/05/08 06:29:59;;;;;;;8.35;2.40;;;8.60;99.90;;;;;;5039649;28;20033;-75
2022/05/08 06:32:25;;;;;;;10.57;2.20;;;8.70;99.90;;;;;;5022686;28;20037;-74
2022/05/08 06:34:50;;;;;;;9.57;1.88;;;8.80;99.90;;;;;;5040946;28;20080;-75
2022/05/08 06:37:16;;;;;;;6.07;1.45;;;8.80;99.90;;;;;;5020113;28;20068;-75
2022/05/08 06:39:42;;;;;;;9.68;1.80;;;8.90;99.90;;;;;;5006789;28;20048;-75
2022/05/08 06:42:08;;;;;;;6.13;2.35;;;8.90;99.90;;;;;;5038789;28;20041;-75
2022/05/08 06:44:33;;;;;;;12.55;2.70;;;9.00;99.90;;;;;;5022822;28;20041;-75
2022/05/08 06:46:59;;;;;;;15.82;7.07;;;9.00;99.90;;;;;;5022935;28;20037;-74
2022/05/08 06:49:25;;;;;;;10.63;3.08;;;10.60;99.90;;;;;;5023624;28;20068;-75
2022/05/08 06:51:51;;;;;;;10.05;1.55;;;9.40;99.90;;;;;;5041150;28;20512;-75
2022/05/08 06:54:17;;;;;;;13.65;1.73;;;9.20;99.90;;;;;;5041185;28;20061;-74
2022/05/08 06:56:42;;;;;;;8.38;1.42;;;9.30;99.90;;;;;;5025453;28;20221;-75
2022/05/08 07:01:53;;;;;;;;;;;9.50;99.90;;;;;;5025008;28;20067;-75
2022/05/08 07:04:19;;;;;;;10.32;1.70;;;9.50;99.90;;;;;;5023492;28;20027;-74
2022/05/08 07:06:45;;;;;;;7.80;1.38;;;9.60;99.90;;;;;;5039079;28;20039;-75
2022/05/08 07:09:13;;;;;;;9.80;1.52;;;9.60;99.90;;;;;;4329991;28;10000692;-75
2022/05/08 07:11:39;;;;;;;7.70;1.95;;;9.50;99.90;;;;;;5022997;28;20050;-74
2022/05/08 07:14:04;;;;;;;10.00;1.55;;;9.60;99.90;;;;;;5007421;28;20047;-76
2022/05/08 07:16:30;;;;;;;16.35;2.40;;;9.60;99.90;;;;;;5022175;28;20037;-74
2022/05/08 07:18:56;;;;;;;7.20;1.60;;;9.40;99.90;;;;;;5000568;28;20051;-75
2022/05/08 07:21:22;;;;;;;9.43;1.33;;;9.50;99.90;;;;;;5019220;28;20237;-73
2022/05/08 07:23:48;;;;;;;8.00;1.20;;;9.50;99.90;;;;;;5015793;28;20050;-78
2022/05/08 07:26:14;;;;;;;5.57;2.47;;;9.50;99.90;;;;;;5021399;28;20041;-78
2022/05/08 07:28:41;;;;;;;11.45;2.17;;;10.40;99.90;;;;;;5007420;28;20045;-78
2022/05/08 07:31:06;;;;;;;11.00;3.15;;;9.50;99.90;;;;;;5019634;28;20056;-77
2022/05/08 07:33:35;;;;;;;9.15;1.50;;;9.60;99.90;;;;;;5023692;28;20112;-77
2022/05/08 07:36:14;;;;;;;8.40;1.77;;;9.60;99.90;;;;;;5022394;28;20037;-76
2022/05/08 07:38:46;;;;;;;8.43;1.20;;;9.60;99.90;;;;;;5006203;28;20043;-76
2022/05/08 07:41:15;;;;;;;8.95;1.30;;;9.70;99.90;;;;;;5020875;28;20045;-77
2022/05/08 07:43:42;;;;;;;12.50;1.65;;;11.20;99.90;;;;;;5006175;28;20047;-74
2022/05/08 07:46:08;;;;;;;17.15;2.00;;;9.80;99.90;;;;;;5022799;28;20117;-77
2022/05/08 07:48:33;;;;;;;8.70;1.38;;;9.50;99.90;;;;;;5001117;28;20666;-75
2022/05/08 07:51:00;;;;;;;11.25;2.40;;;9.80;99.90;;;;;;5021782;28;20046;-75
2022/05/08 07:53:27;;;;;;;9.25;1.70;;;9.60;99.90;;;;;;4992904;28;20715;-76
2022/05/08 07:55:53;;;;;;;11.80;2.63;;;9.90;99.90;;;;;;5034264;28;20044;-76
2022/05/08 07:58:21;;;;;;;8.10;1.15;;;9.80;99.90;;;;;;5017176;28;20497;-75
2022/05/08 08:00:47;;;;;;;6.97;1.98;;;9.80;99.90;;;;;;5003410;28;20076;-76
2022/05/08 08:03:13;;;;;;;15.02;3.20;;;9.90;99.90;;;;;;5023087;28;20041;-76
2022/05/08 08:05:39;;;;;;;8.13;2.03;;;9.90;99.90;;;;;;5041713;28;20040;-76
2022/05/08 08:08:05;;;;;;;9.48;1.88;;;10.00;99.90;;;;;;5023405;28;20055;-75
2022/05/08 08:10:30;;;;;;;9.43;1.70;;;10.00;99.90;;;;;;5020708;28;20125;-68
2022/05/08 08:12:57;;;;;;;10.32;1.15;;;10.00;99.90;;;;;;5007916;28;20136;-68
2022/05/08 08:15:22;;;;;;;8.18;1.35;;;10.10;99.90;;;;;;5000270;28;20129;-75
2022/05/08 08:17:48;;;;;;;9.65;1.75;;;10.20;99.90;;;;;;4999291;28;20574;-73
2022/05/08 08:20:14;;;;;;;8.15;1.90;;;10.30;99.90;;;;;;4998303;28;20042;-75
2022/05/08 08:22:39;;;;;;;15.25;2.67;;;10.40;99.90;;;;;;4996636;28;20053;-69
2022/05/08 08:25:05;;;;;;;11.73;1.80;;;10.50;99.90;;;;;;5005750;28;20080;-69
2022/05/08 08:27:31;;;;;;;10.95;2.67;;;10.50;99.90;;;;;;5006320;28;20045;-68
2022/05/08 08:29:57;;;;;;;21.05;9.32;;;10.50;99.90;;;;;;5006724;28;20054;-68
2022/05/08 08:32:22;;;;;;;12.38;1.52;;;10.60;99.90;;;;;;5002355;28;20430;-68
2022/05/08 08:34:49;;;;;;;16.70;2.45;;;10.60;99.90;;;;;;5001295;28;20536;-72
2022/05/08 08:37:15;;;;;;;13.35;2.33;;;10.60;99.90;;;;;;5000870;28;20041;-71
2022/05/08 08:39:40;;;;;;;9.50;1.92;;;10.60;99.90;;;;;;5006232;28;20545;-68
2022/05/08 08:42:11;;;;;;;10.65;1.92;;;10.70;99.90;;;;;;5034413;28;20041;-67
2022/05/08 08:47:44;;;;;;;29.45;2.42;;;10.80;99.90;;;;;;5000590;28;20125;-68
2022/05/08 08:50:11;;;;;;;8.95;1.30;;;10.90;99.90;;;;;;4997453;28;20221;-68
2022/05/08 08:52:37;;;;;;;12.40;2.47;;;11.00;99.90;;;;;;5003586;28;20485;-68
2022/05/08 08:55:05;;;;;;;10.95;1.50;;;11.20;99.90;;;;;;5005069;28;20133;-68
2022/05/08 08:57:31;;;;;;;10.52;2.40;;;11.20;99.90;;;;;;4999592;28;20061;-71
2022/05/08 08:59:57;;;;;;;10.77;2.13;;;11.30;99.90;;;;;;5005478;28;20038;-72
2022/05/08 09:02:22;;;;;;;13.50;2.65;;;11.30;99.90;;;;;;5000688;28;20125;-68
2022/05/08 09:04:49;;;;;;;8.35;1.27;;;11.30;99.90;;;;;;5003184;28;20129;-75
2022/05/08 09:07:35;;;;;;;8.75;1.50;;;11.30;99.90;;;;;;5000343;28;20039;-71
2022/05/08 09:10:20;;;;;;;10.15;2.65;;;11.60;99.90;;;;;;5004140;28;20041;-69
2022/05/08 09:12:51;;;;;;;;;;;11.60;99.90;;;;;;5039494;28;20041;-69
2022/05/08 09:15:19;;;;;;;8.05;2.45;;;11.70;99.90;;;;;;5044294;28;19932;-72
2022/05/08 09:17:46;;;;;;;8.65;1.60;;;11.80;99.90;;;;;;5042118;28;20435;-70
2022/05/08 09:20:36;;;;;;;8.85;1.80;;;11.80;99.90;;;;;;5039931;28;20083;-68
2022/05/08 09:23:12;;;;;;;12.05;1.58;;;11.90;99.90;;;;;;5043006;28;20044;-69
2022/05/08 09:25:48;;;;;;;11.32;1.80;;;12.00;99.90;;;;;;5040855;28;20090;-71
2022/05/08 09:28:14;;;;;;;10.85;1.30;;;12.10;99.90;;;;;;5028309;28;20044;-72
2022/05/08 09:30:55;;;;;;;7.38;1.02;;;12.20;99.90;;;;;;5026571;28;20057;-69
2022/05/08 09:33:25;;;;;;;8.70;1.63;;;12.30;99.90;;;;;;5010132;28;20029;-74
2022/05/08 09:35:51;;;;;;;10.00;2.05;;;12.30;99.90;;;;;;5029229;28;20049;-71
2022/05/08 09:38:17;;;;;;;10.18;2.45;;;12.40;99.90;;;;;;5025663;28;20120;-72
2022/05/08 09:40:42;;;;;;;5.82;1.92;;;12.50;99.90;;;;;;5031000;28;20045;-73
2022/05/08 09:43:29;;;;;;;8.88;1.70;;;12.50;99.90;;;;;;5003093;28;20404;-68
2022/05/08 09:45:59;;;;;;;18.45;2.83;;;12.60;99.90;;;;;;5027296;28;20076;-68
2022/05/08 09:48:33;;;;;;;9.85;2.05;;;12.60;99.90;;;;;;5020223;28;20496;-68
2022/05/08 09:51:04;;;;;;;9.13;1.80;;;12.70;99.90;;;;;;5045071;28;20037;-69
2022/05/08 09:53:31;;;;;;;12.43;2.15;;;12.70;99.90;;;;;;5022100;28;20057;-68
2022/05/08 09:55:59;;;;;;;11.48;1.63;;;12.80;99.90;;;;;;5022181;28;20393;-68
2022/05/08 09:58:25;;;;;;;11.23;1.95;;;12.90;99.90;;;;;;5021715;28;20079;-68
2022/05/08 10:00:52;;;;;;;8.25;1.65;;;12.90;99.90;;;;;;5021987;28;20099;-68
2022/05/08 10:03:19;;;;;;;9.93;2.50;;;12.90;99.90;;;;;;5025273;28;20511;-68
2022/05/08 10:05:45;;;;;;;14.15;2.38;;;13.00;99.90;;;;;;5034244;28;20037;-69
2022/05/08 10:08:16;;;;;;;12.80;1.42;;;13.00;99.90;;;;;;5041678;28;20068;-69
2022/05/08 10:14:00;;;;;;;14.75;2.00;;;13.00;99.90;;;;;;5045566;28;20421;-67
2022/05/08 10:16:49;;;;;;;14.93;2.28;;;13.20;99.90;;;;;;5046730;28;20809;-73
2022/05/08 10:19:27;;;;;;;6.15;1.40;;;13.30;99.90;;;;;;5023612;28;20573;-71
2022/05/08 10:22:13;;;;;;;12.80;2.20;;;13.40;99.90;;;;;;5027326;28;20085;-74
2022/05/08 10:24:47;;;;;;;7.05;1.80;;;13.50;99.90;;;;;;5023604;28;20060;-76
2022/05/08 10:27:29;;;;;;;11.45;1.90;;;13.50;99.90;;;;;;5032027;28;20051;-73
2022/05/08 10:29:57;;;;;;;10.60;1.70;;;13.60;99.90;;;;;;5036315;28;20049;-70
2022/05/08 10:32:32;;;;;;;11.77;1.50;;;13.80;99.90;;;;;;5004157;28;20048;-70
2022/05/08 10:35:03;;;;;;;13.90;1.92;;;13.90;99.90;;;;;;5026535;28;20049;-73
2022/05/08 10:37:30;;;;;;;13.45;1.95;;;14.00;99.90;;;;;;5045272;28;20091;-70
2022/05/08 10:39:56;;;;;;;8.10;1.92;;;14.00;99.90;;;;;;5010304;28;20041;-70
2022/05/08 10:42:29;;;;;;;43.40;5.68;;;14.10;99.90;;;;;;5034763;28;20045;-70
2022/05/08 10:44:58;;;;;;;22.10;2.80;;;14.20;99.90;;;;;;5020152;28;20042;-73
2022/05/08 10:47:42;;;;;;;6.20;1.70;;;14.30;99.90;;;;;;5024546;28;20049;-69
2022/05/08 10:50:11;;;;;;;12.15;2.00;;;14.40;99.90;;;;;;5022786;28;20456;-68
2022/05/08 10:52:41;;;;;;;9.82;2.00;;;14.50;99.90;;;;;;5036071;28;20790;-73
2022/05/08 10:55:09;;;;;;;9.30;2.17;;;14.70;99.90;;;;;;5040758;28;20101;-71
2022/05/08 10:57:37;;;;;;;13.48;5.53;;;14.90;99.90;;;;;;5019314;28;20037;-73
2022/05/08 11:00:11;;;;;;;9.93;3.25;;;14.90;99.90;;;;;;5017717;28;20049;-72
2022/05/08 11:02:48;;;;;;;11.57;2.70;;;15.10;99.90;;;;;;5020549;28;20130;-76
2022/05/08 11:05:18;;;;;;;10.70;2.15;;;15.20;99.70;;;;;;5042911;28;20075;-69
2022/05/08 11:07:57;;;;;;;12.65;1.85;;;15.30;99.70;;;;;;5040025;28;20046;-69
2022/05/08 11:10:31;;;;;;;12.90;4.28;;;15.30;99.60;;;;;;5039523;28;20032;-69
2022/05/08 11:13:02;;;;;;;7.63;1.92;;;15.40;98.90;;;;;;5022090;28;20060;-74
2022/05/08 11:15:29;;;;;;;10.75;1.85;;;15.60;98.60;;;;;;5040983;28;20037;-68
2022/05/08 11:18:07;;;;;;;12.88;1.95;;;15.70;98.20;;;;;;5036490;28;20033;-76
2022/05/08 11:20:36;;;;;;;10.75;2.05;;;15.90;98.00;;;;;;5024936;28;20049;-76
2022/05/08 11:23:04;;;;;;;12.55;2.17;;;16.00;98.00;;;;;;5039529;28;20037;-76
2022/05/08 11:25:30;;;;;;;10.13;1.40;;;16.10;97.50;;;;;;5019406;28;20050;-72
2022/05/08 11:27:56;;;;;;;17.08;2.50;;;16.30;96.60;;;;;;5019026;28;20065;-73
2022/05/08 11:30:29;;;;;;;10.45;2.28;;;16.40;95.90;;;;;;5047847;28;20048;-79
2022/05/08 11:36:04;;;;;;;9.77;1.77;;;16.60;95.40;;;;;;5039365;28;20049;-75
2022/05/08 11:38:50;;;;;;;16.67;3.17;;;16.70;94.40;;;;;;5042024;28;20047;-67
2022/05/08 11:41:24;;;;;;;12.50;6.40;;;16.80;94.80;;;;;;5019853;28;20072;-72
2022/05/08 11:43:57;;;;;;;;;;;17.00;94.10;;;;;;5030794;28;20041;-68
2022/05/08 11:46:37;;;;;;;6.05;1.50;;;17.10;94.00;;;;;;5019564;28;19917;-67
2022/05/08 11:49:25;;;;;;;12.05;1.42;;;17.20;93.00;;;;;;5037189;28;20047;-77
2022/05/08 11:51:53;;;;;;;10.40;1.67;;;17.30;93.00;;;;;;5040339;28;20575;-67
2022/05/08 11:54:23;;;;;;;8.23;1.67;;;17.40;91.70;;;;;;5016495;28;20069;-69
2022/05/08 11:56:51;;;;;;;6.30;1.17;;;17.60;90.90;;;;;;5043751;28;20529;-67
2022/05/08 11:59:23;;;;;;;12.25;2.03;;;17.60;91.00;;;;;;5021938;28;20044;-70
2022/05/08 12:01:56;;;;;;;11.52;2.03;;;17.70;90.20;;;;;;5031993;28;20050;-76
2022/05/08 12:04:23;;;;;;;11.98;2.60;;;17.70;90.80;;;;;;5026668;28;20044;-68
2022/05/08 12:07:10;;;;;;;5.53;1.38;;;17.80;90.00;;;;;;5026966;28;20056;-72
2022/05/08 12:09:48;;;;;;;12.15;1.95;;;18.00;87.00;;;;;;5029060;28;20110;-75
2022/05/08 12:12:23;;;;;;;11.75;2.28;;;18.00;86.10;;;;;;5028383;28;20131;-71
2022/05/08 12:14:52;;;;;;;7.07;1.48;;;18.20;87.20;;;;;;5028254;28;20073;-71
2022/05/08 12:17:19;;;;;;;6.78;1.60;;;18.20;85.60;;;;;;5036029;28;20403;-75
2022/05/08 12:19:56;;;;;;;8.25;1.90;;;18.20;84.80;;;;;;5046906;28;20041;-70
2022/05/08 12:22:29;;;;;;;16.98;1.90;;;18.40;83.40;;;;;;5025378;28;20128;-77
2022/05/08 12:25:00;;;;;;;7.23;1.70;;;18.40;81.60;;;;;;5044076;28;20029;-77
2022/05/08 12:27:26;;;;;;;9.55;1.67;;;18.50;82.60;;;;;;5029638;28;20045;-77
2022/05/08 12:29:53;;;;;;;5.22;1.50;;;18.50;82.90;;;;;;5043183;28;20054;-77
2022/05/08 12:32:20;;;;;;;8.27;3.40;;;18.50;83.10;;;;;;5028684;28;20033;-77
2022/05/08 12:34:46;;;;;;;18.50;11.88;;;18.80;82.40;;;;;;5028810;28;20057;-77
2022/05/08 12:37:14;;;;;;;8.80;1.13;;;18.80;81.30;;;;;;5027075;28;20396;-78
2022/05/08 12:39:40;;;;;;;12.07;2.33;;;18.90;80.00;;;;;;5027933;28;20044;-77
2022/05/08 12:42:07;;;;;;;8.60;1.10;;;19.00;80.20;;;;;;5025040;28;20057;-77
2022/05/08 12:44:39;;;;;;;12.30;2.53;;;19.10;80.10;;;;;;5008433;28;20412;-78
2022/05/08 12:47:06;;;;;;;11.68;2.13;;;19.20;79.20;;;;;;5045264;28;20036;-78
2022/05/08 12:49:32;;;;;;;9.13;1.85;;;19.30;79.30;;;;;;5027704;28;20049;-78
2022/05/08 12:51:58;;;;;;;7.88;1.48;;;19.30;78.90;;;;;;5025621;28;20045;-78
2022/05/08 12:54:24;;;;;;;9.63;1.65;;;19.40;77.50;;;;;;5011615;28;20055;-78
2022/05/08 12:56:50;;;;;;;7.13;1.42;;;19.50;76.80;;;;;;5029535;28;20372;-78
2022/05/08 13:02:00;;;;;;;9.50;2.65;;;19.50;75.80;;;;;;5027087;28;20046;-77
2022/05/08 13:04:26;;;;;;;7.93;1.92;;;20.20;74.70;;;;;;5030035;28;20049;-74
2022/05/08 13:06:52;;;;;;;5.25;1.50;;;19.60;74.20;;;;;;5026760;28;20495;-73
2022/05/08 13:09:18;;;;;;;7.10;1.90;;;19.40;74.70;;;;;;5028375;28;20090;-75
2022/05/08 13:11:43;;;;;;;239.90;21.98;;;19.50;73.80;;;;;;5015343;28;20491;-73
2022/05/08 13:14:09;;;;;;;14.27;1.67;;;19.40;74.20;;;;;;5044175;28;20049;-73